createdAt,value
2024-03-13T00:01:57.824Z,11.54
2024-03-13T00:04:26.171Z,11.97
2024-03-13T00:06:56.659Z,11.84
2024-03-13T00:09:25.927Z,12.32
2024-03-13T00:11:54.021Z,12.02
2024-03-13T00:14:22.247Z,12.28
2024-03-13T00:16:49.851Z,11.73
2024-03-13T00:19:17.397Z,11.81
2024-03-13T00:21:44.893Z,12.12
2024-03-13T00:24:13.782Z,12.26
2024-03-13T00:26:51.046Z,11.71
2024-03-13T00:29:18.556Z,11.73
2024-03-13T00:31:46.313Z,12.04
2024-03-13T00:34:13.999Z,12.20
2024-03-13T00:36:41.615Z,12.13
2024-03-13T00:39:09.220Z,11.91
2024-03-13T00:41:40.034Z,11.68
2024-03-13T00:44:08.212Z,12.12
2024-03-13T00:46:35.928Z,11.77
2024-03-13T00:49:03.534Z,11.63
2024-03-13T00:51:32.137Z,12.37
2024-03-13T00:54:05.356Z,12.25
2024-03-13T00:56:33.614Z,12.20
2024-03-13T00:59:02.363Z,12.28
2024-03-13T01:01:29.987Z,11.92
2024-03-13T01:03:59.212Z,12.35
2024-03-13T01:06:29.901Z,12.38
2024-03-13T01:08:58.466Z,12.23
2024-03-13T01:11:26.951Z,11.88
2024-03-13T01:13:54.475Z,11.90
2024-03-13T01:16:23.961Z,11.77
2024-03-13T01:18:51.551Z,12.33
2024-03-13T01:21:22.289Z,12.30
2024-03-13T01:23:49.875Z,12.14
2024-03-13T01:26:17.517Z,11.95
2024-03-13T01:28:45.103Z,12.28
2024-03-13T01:31:12.721Z,12.31
2024-03-13T01:33:41.597Z,12.29
2024-03-13T01:36:09.571Z,11.93
2024-03-13T01:38:36.376Z,12.49
2024-03-13T01:41:21.732Z,12.15
2024-03-13T01:44:13.765Z,12.23
2024-03-13T01:46:59.176Z,12.58
2024-03-13T01:49:46.073Z,12.33
2024-03-13T01:52:35.486Z,12.14
2024-03-13T01:55:11.571Z,12.46
2024-03-13T01:58:09.190Z,12.57
2024-03-13T02:00:55.400Z,12.40
2024-03-13T02:03:28.004Z,12.47
2024-03-13T02:06:17.364Z,12.42
2024-03-13T02:08:46.748Z,12.39
2024-03-13T02:11:14.356Z,12.67
2024-03-13T02:13:41.967Z,12.54
2024-03-13T02:16:10.806Z,12.63
2024-03-13T02:18:38.357Z,12.69
2024-03-13T02:21:08.965Z,12.46
2024-03-13T02:23:36.647Z,12.40
2024-03-13T02:26:05.042Z,12.78
2024-03-13T02:28:33.665Z,12.41
2024-03-13T02:31:01.911Z,12.53
2024-03-13T02:33:29.605Z,12.17
2024-03-13T02:35:57.255Z,12.52
2024-03-13T02:38:24.884Z,12.18
2024-03-13T02:40:55.251Z,12.37
2024-03-13T02:43:23.120Z,12.17
2024-03-13T02:45:50.973Z,12.29
2024-03-13T02:48:18.616Z,12.35
2024-03-13T02:50:46.304Z,12.56
2024-03-13T02:53:14.004Z,12.68
2024-03-13T02:55:44.633Z,12.46
2024-03-13T02:58:13.180Z,13.02
2024-03-13T03:00:41.005Z,13.15
2024-03-13T03:03:12.440Z,12.73
2024-03-13T03:05:40.257Z,13.25
2024-03-13T03:08:08.239Z,12.97
2024-03-13T03:10:36.401Z,12.47
2024-03-13T03:13:05.276Z,12.84
2024-03-13T03:15:35.841Z,12.54
2024-03-13T03:18:04.790Z,12.63
2024-03-13T03:20:32.986Z,12.34
2024-03-13T03:23:00.764Z,12.60
2024-03-13T03:25:30.331Z,13.08
2024-03-13T03:27:59.066Z,13.16
2024-03-13T03:30:31.204Z,13.03
2024-03-13T03:32:59.487Z,13.33
2024-03-13T03:35:28.755Z,13.36
2024-03-13T03:37:56.557Z,13.34
2024-03-13T03:40:24.765Z,13.61
2024-03-13T03:42:52.796Z,13.43
2024-03-13T03:45:20.521Z,13.31
2024-03-13T03:47:54.490Z,13.05
2024-03-13T03:50:25.531Z,12.92
2024-03-13T03:52:53.592Z,12.86
2024-03-13T03:55:22.793Z,12.68
2024-03-13T03:57:50.811Z,12.64
2024-03-13T04:00:18.895Z,12.71
2024-03-13T04:02:46.572Z,13.00
2024-03-13T04:05:14.989Z,13.00
2024-03-13T04:07:43.398Z,13.44
2024-03-13T04:10:11.262Z,13.72
2024-03-13T04:12:39.871Z,13.48
2024-03-13T04:15:08.110Z,13.35
2024-03-13T04:17:36.517Z,13.02
2024-03-13T04:20:04.727Z,13.43
2024-03-13T04:22:33.211Z,13.46
2024-03-13T04:25:01.112Z,13.69
2024-03-13T04:27:28.891Z,13.87
2024-03-13T04:29:56.558Z,13.71
2024-03-13T04:32:26.294Z,13.51
2024-03-13T04:34:54.174Z,13.66
2024-03-13T04:37:24.429Z,13.45
2024-03-13T04:39:52.333Z,13.25
2024-03-13T04:42:20.703Z,13.33
2024-03-13T04:44:49.592Z,13.51
2024-03-13T04:47:17.277Z,13.03
2024-03-13T04:49:44.960Z,13.57
2024-03-13T04:52:12.629Z,13.28
2024-03-13T04:54:40.852Z,13.60
2024-03-13T04:57:08.523Z,13.14
2024-03-13T04:59:37.288Z,13.62
2024-03-13T05:02:05.181Z,13.27
2024-03-13T05:04:33.133Z,13.64
2024-03-13T05:07:03.409Z,13.57
2024-03-13T05:09:31.390Z,13.27
2024-03-13T05:11:59.225Z,13.38
2024-03-13T05:14:27.070Z,13.99
2024-03-13T05:16:55.264Z,13.57
2024-03-13T05:19:24.035Z,13.81
2024-03-13T05:21:52.597Z,13.91
2024-03-13T05:24:20.297Z,13.99
2024-03-13T05:26:47.991Z,13.79
2024-03-13T05:29:15.850Z,13.82
2024-03-13T05:31:43.588Z,14.29
2024-03-13T05:34:11.716Z,13.58
2024-03-13T05:36:39.486Z,14.02
2024-03-13T05:39:07.291Z,14.07
2024-03-13T05:41:36.050Z,14.14
2024-03-13T05:44:03.814Z,14.30
2024-03-13T05:46:31.477Z,13.79
2024-03-13T05:48:59.495Z,13.70
2024-03-13T05:51:27.532Z,14.02
2024-03-13T05:53:55.312Z,14.10
2024-03-13T05:56:22.944Z,14.19
2024-03-13T05:58:50.689Z,13.85
2024-03-13T06:01:23.580Z,14.02
2024-03-13T06:03:54.636Z,14.32
2024-03-13T06:06:23.434Z,14.11
2024-03-13T06:08:51.125Z,14.14
2024-03-13T06:11:20.076Z,13.99
2024-03-13T06:13:48.067Z,14.71
2024-03-13T06:16:16.378Z,14.14
2024-03-13T06:18:44.088Z,13.91
2024-03-13T06:21:11.878Z,14.36
2024-03-13T06:23:48.796Z,13.84
2024-03-13T06:26:18.209Z,14.27
2024-03-13T06:29:03.389Z,14.46
2024-03-13T06:31:31.071Z,14.48
2024-03-13T06:34:00.447Z,14.46
2024-03-13T06:36:28.270Z,14.31
2024-03-13T06:38:55.915Z,13.62
2024-03-13T06:41:24.838Z,13.98
2024-03-13T06:43:52.798Z,14.03
2024-03-13T06:46:20.527Z,14.25
2024-03-13T06:48:48.268Z,14.48
2024-03-13T06:51:15.943Z,13.85
2024-03-13T06:53:44.474Z,14.45
2024-03-13T06:56:12.231Z,14.54
2024-03-13T06:58:39.924Z,14.68
2024-03-13T07:01:14.083Z,14.69
2024-03-13T07:03:42.625Z,14.40
2024-03-13T07:06:12.874Z,14.23
2024-03-13T07:08:40.848Z,14.54
2024-03-13T07:11:08.660Z,14.77
2024-03-13T07:13:36.530Z,14.90
2024-03-13T07:16:04.356Z,15.06
2024-03-13T07:18:32.122Z,14.40
2024-03-13T07:20:59.817Z,14.54
2024-03-13T07:23:28.140Z,14.73
2024-03-13T07:25:56.503Z,14.73
2024-03-13T07:28:24.289Z,13.97
2024-03-13T07:30:52.038Z,14.39
2024-03-13T07:33:19.801Z,14.81
2024-03-13T07:35:48.000Z,14.94
2024-03-13T07:38:15.538Z,15.07
2024-03-13T07:40:43.489Z,15.58
2024-03-13T07:43:11.417Z,15.29
2024-03-13T07:45:40.918Z,14.49
2024-03-13T07:48:09.586Z,14.70
2024-03-13T07:50:37.887Z,14.83
2024-03-13T07:53:05.908Z,15.26
2024-03-13T07:55:33.994Z,15.27
2024-03-13T07:58:03.839Z,15.21
2024-03-13T08:00:36.382Z,15.08
2024-03-13T08:03:04.257Z,14.66
2024-03-13T08:05:33.013Z,14.97
2024-03-13T09:06:07.858Z,15.82
2024-03-13T09:08:44.383Z,16.38
2024-03-13T09:11:18.104Z,16.96
2024-03-13T09:13:46.555Z,15.77
2024-03-13T09:16:14.539Z,15.88
2024-03-13T09:18:42.548Z,16.34
2024-03-13T09:21:10.560Z,16.13
2024-03-13T09:23:38.372Z,15.59
2024-03-13T09:26:06.084Z,16.18
2024-03-13T09:28:33.814Z,16.44
2024-03-13T09:31:03.696Z,15.69
2024-03-13T09:33:32.641Z,16.05
2024-03-13T09:36:01.799Z,15.58
2024-03-13T09:38:29.902Z,16.44
2024-03-13T09:40:57.693Z,15.77
2024-03-13T09:43:25.542Z,15.31
2024-03-13T09:45:53.340Z,15.51
2024-03-13T09:48:21.167Z,15.57
2024-03-13T09:50:54.201Z,16.43
2024-03-13T09:53:23.008Z,15.36
2024-03-13T09:55:50.936Z,15.55
2024-03-13T09:58:18.696Z,15.93
2024-03-13T10:00:46.751Z,16.43
2024-03-13T10:03:20.760Z,17.04
2024-03-13T10:05:48.500Z,17.01
2024-03-13T10:08:16.190Z,15.75
2024-03-13T10:10:46.195Z,16.94
2024-03-13T10:13:15.472Z,17.02
2024-03-13T10:15:42.941Z,17.04
2024-03-13T10:18:11.729Z,17.31
2024-03-13T10:20:39.670Z,16.70
2024-03-13T10:23:07.371Z,16.09
2024-03-13T10:25:36.498Z,16.81
2024-03-13T10:28:05.397Z,17.07
2024-03-13T10:30:33.109Z,16.91
2024-03-13T10:33:01.275Z,16.63
2024-03-13T10:35:29.061Z,17.28
2024-03-13T10:37:57.707Z,16.86
2024-03-13T10:40:26.173Z,17.68
2024-03-13T10:42:53.934Z,18.16
2024-03-13T10:45:21.698Z,17.94
2024-03-13T10:47:51.095Z,17.61
2024-03-13T10:50:18.916Z,17.60
2024-03-13T10:52:46.648Z,17.89
2024-03-13T10:55:14.745Z,17.13
2024-03-13T10:57:43.916Z,16.76
2024-03-13T11:00:12.921Z,17.00
2024-03-13T11:02:40.743Z,16.44
2024-03-13T11:05:11.427Z,16.69
2024-03-13T11:07:39.457Z,16.92
2024-03-13T11:10:07.130Z,16.65
2024-03-13T11:12:34.823Z,16.69
2024-03-13T11:15:02.562Z,16.59
2024-03-13T11:17:30.315Z,16.83
2024-03-13T11:19:58.057Z,16.63
2024-03-13T11:22:25.938Z,16.95
2024-03-13T11:24:53.818Z,17.52
2024-03-13T11:27:21.542Z,17.68
2024-03-13T11:29:50.534Z,17.13
2024-03-13T11:32:18.649Z,16.93
2024-03-13T11:34:46.426Z,17.25
2024-03-13T11:37:14.164Z,17.08
2024-03-13T11:39:42.189Z,17.89
2024-03-13T11:42:13.137Z,17.57
2024-03-13T11:44:43.776Z,18.19
2024-03-13T11:47:12.685Z,17.80
2024-03-13T11:49:41.381Z,17.76
2024-03-13T11:52:12.600Z,17.95
2024-03-13T11:54:41.329Z,17.35
2024-03-13T11:57:09.310Z,17.49
2024-03-13T11:59:40.381Z,16.83
2024-03-13T12:02:08.112Z,17.16
2024-03-13T12:04:38.815Z,16.82
2024-03-13T12:07:07.400Z,16.79
2024-03-13T12:09:35.042Z,16.16
2024-03-13T12:12:05.491Z,16.34
2024-03-13T12:14:33.303Z,16.92
2024-03-13T12:17:01.194Z,17.29
2024-03-13T12:19:29.327Z,16.75
2024-03-13T12:21:58.221Z,16.82
2024-03-13T12:24:27.195Z,17.45
2024-03-13T12:26:54.994Z,17.73
2024-03-13T12:29:24.037Z,17.76
2024-03-13T12:31:53.079Z,18.11
2024-03-13T12:34:20.976Z,18.10
2024-03-13T12:36:48.664Z,18.60
2024-03-13T12:39:18.832Z,18.05
2024-03-13T12:41:46.895Z,18.28
2024-03-13T12:44:22.443Z,17.70
2024-03-13T12:46:50.218Z,17.35
2024-03-13T12:49:17.991Z,18.22
2024-03-13T12:51:45.930Z,17.87
2024-03-13T12:54:15.464Z,18.18
2024-03-13T12:56:44.378Z,17.89
2024-03-13T12:59:12.835Z,17.88
2024-03-13T13:01:40.609Z,17.78
2024-03-13T13:04:09.329Z,18.20
2024-03-13T13:06:37.022Z,17.74
2024-03-13T13:09:09.596Z,18.00
2024-03-13T13:11:42.001Z,17.91
2024-03-13T13:14:12.387Z,17.94
2024-03-13T13:16:40.907Z,18.18
2024-03-13T13:19:08.833Z,17.89
2024-03-13T13:21:36.836Z,18.44
2024-03-13T13:24:05.323Z,18.00
2024-03-13T13:26:33.013Z,17.90
2024-03-13T13:31:31.276Z,17.70
2024-03-13T13:33:59.031Z,17.87
2024-03-13T13:36:26.894Z,17.88
2024-03-13T13:38:54.719Z,17.64
2024-03-13T13:41:22.517Z,18.24
2024-03-13T13:43:50.241Z,18.03
2024-03-13T13:46:18.051Z,18.11
2024-03-13T13:48:45.831Z,18.37
2024-03-13T13:51:13.774Z,17.82
2024-03-13T13:53:41.536Z,17.90
2024-03-13T13:56:09.647Z,17.96
2024-03-13T13:58:38.385Z,17.79
2024-03-13T14:01:06.539Z,18.00
2024-03-13T14:03:34.282Z,18.11
2024-03-13T14:06:02.537Z,18.16
2024-03-13T14:08:30.702Z,18.87
2024-03-13T14:11:01.580Z,18.46
2024-03-13T14:13:30.569Z,18.90
2024-03-13T14:15:58.260Z,18.98
2024-03-13T14:18:26.061Z,18.22
2024-03-13T14:20:53.851Z,18.09
2024-03-13T14:23:21.606Z,17.30
2024-03-13T14:25:49.270Z,17.62
2024-03-13T14:28:17.265Z,17.82
2024-03-13T14:30:45.675Z,17.67
2024-03-13T14:33:13.586Z,17.65
2024-03-13T14:35:43.608Z,17.91
2024-03-13T14:38:13.692Z,17.62
2024-03-13T14:40:41.366Z,17.80
2024-03-13T14:43:10.663Z,18.01
2024-03-13T14:45:38.638Z,17.76
2024-03-13T14:48:08.061Z,17.32
2024-03-13T14:50:36.075Z,17.17
2024-03-13T14:53:06.648Z,17.35
2024-03-13T14:55:35.328Z,17.88
2024-03-13T14:58:04.373Z,18.59
2024-03-13T15:00:32.589Z,18.08
2024-03-13T15:03:00.796Z,17.96
2024-03-13T15:05:32.181Z,18.14
2024-03-13T15:08:02.644Z,17.76
2024-03-13T15:10:31.134Z,18.02
2024-03-13T15:12:59.471Z,18.59
2024-03-13T15:15:27.592Z,18.69
2024-03-13T15:17:55.872Z,18.24
2024-03-13T15:20:23.878Z,18.58
2024-03-13T15:22:51.555Z,18.62
2024-03-13T15:25:19.293Z,18.25
2024-03-13T15:27:47.170Z,17.77
2024-03-13T15:30:16.756Z,17.47
2024-03-13T15:32:45.483Z,17.69
2024-03-13T15:35:14.591Z,17.47
2024-03-13T15:37:42.301Z,18.02
2024-03-13T15:40:12.390Z,17.84
2024-03-13T15:42:41.185Z,17.79
2024-03-13T15:45:09.483Z,18.02
2024-03-13T15:47:38.814Z,17.62
2024-03-13T15:50:13.388Z,17.77
2024-03-13T15:52:47.837Z,18.34
2024-03-13T15:55:16.889Z,18.62
2024-03-13T15:57:44.599Z,18.61
2024-03-13T16:00:17.282Z,18.50
2024-03-13T16:02:46.469Z,18.01
2024-03-13T16:05:14.345Z,17.92
2024-03-13T16:07:42.492Z,18.43
2024-03-13T16:10:10.550Z,18.18
2024-03-13T16:12:38.428Z,18.54
2024-03-13T16:15:07.224Z,18.85
2024-03-13T16:17:35.718Z,18.47
2024-03-13T16:20:03.452Z,18.60
2024-03-13T16:22:31.143Z,18.53
2024-03-13T16:24:58.981Z,18.36
2024-03-13T16:27:26.949Z,19.00
2024-03-13T16:29:54.668Z,18.19
2024-03-13T16:32:22.533Z,18.31
2024-03-13T16:34:50.288Z,18.55
2024-03-13T16:37:18.031Z,18.05
2024-03-13T16:39:46.162Z,18.01
2024-03-13T16:42:13.891Z,17.97
2024-03-13T16:44:41.685Z,18.26
2024-03-13T16:47:09.748Z,17.89
2024-03-13T16:49:37.516Z,18.44
2024-03-13T16:52:05.389Z,18.41
2024-03-13T16:54:33.062Z,18.10
2024-03-13T16:57:00.875Z,18.13
2024-03-13T16:59:28.584Z,17.69
2024-03-13T17:01:56.251Z,17.75
2024-03-13T17:04:23.932Z,17.58
2024-03-13T17:06:51.713Z,17.93
2024-03-13T17:09:19.472Z,18.32
2024-03-13T17:11:48.258Z,18.07
2024-03-13T17:14:15.953Z,17.91
2024-03-13T17:16:43.639Z,18.01
2024-03-13T17:19:11.606Z,18.02
2024-03-13T17:21:40.201Z,17.74
2024-03-13T17:24:09.803Z,18.12
2024-03-13T17:26:37.513Z,17.39
2024-03-13T17:29:05.334Z,18.12
2024-03-13T17:31:33.230Z,17.21
2024-03-13T17:34:01.362Z,17.98
2024-03-13T17:36:29.536Z,17.88
2024-03-13T17:38:57.682Z,18.10
2024-03-13T17:41:25.664Z,18.14
2024-03-13T17:43:53.362Z,18.13
2024-03-13T17:46:21.065Z,18.12
2024-03-13T17:48:48.942Z,18.25
2024-03-13T17:51:16.849Z,18.07
2024-03-13T17:53:44.602Z,18.20
2024-03-13T17:56:12.358Z,18.29
2024-03-13T17:58:41.521Z,18.20
2024-03-13T18:01:09.857Z,18.18
2024-03-13T18:03:37.571Z,18.06
2024-03-13T18:06:06.177Z,17.81
2024-03-13T18:08:36.741Z,17.61
2024-03-13T18:11:04.525Z,17.36
2024-03-13T18:13:37.869Z,17.50
2024-03-13T18:16:08.657Z,17.58
2024-03-13T18:18:36.510Z,17.35
2024-03-13T18:21:05.377Z,17.51
2024-03-13T18:23:33.805Z,17.57
2024-03-13T18:26:01.484Z,17.30
2024-03-13T18:28:29.725Z,17.60
2024-03-13T18:30:57.737Z,17.60
2024-03-13T18:33:25.267Z,17.46
2024-03-13T18:35:53.029Z,17.94
2024-03-13T18:38:20.909Z,18.11
2024-03-13T18:40:48.753Z,17.83
2024-03-13T18:43:16.484Z,17.50
2024-03-13T18:45:44.197Z,17.68
2024-03-13T18:48:12.244Z,17.81
2024-03-13T18:50:40.104Z,17.99
2024-03-13T18:53:08.520Z,17.91
2024-03-13T18:55:36.784Z,17.98
2024-03-13T18:58:04.533Z,17.76
2024-03-13T19:00:32.657Z,17.73
2024-03-13T19:03:02.342Z,17.58
2024-03-13T19:05:30.012Z,17.41
2024-03-13T19:07:58.232Z,17.45
2024-03-13T19:10:28.188Z,17.52
2024-03-13T19:12:59.248Z,17.76
2024-03-13T19:15:31.296Z,17.90
2024-03-13T19:18:01.940Z,17.48
2024-03-13T19:20:31.198Z,17.38
2024-03-13T19:23:04.023Z,17.23
2024-03-13T19:25:33.158Z,17.13
2024-03-13T19:28:00.779Z,17.06
2024-03-13T19:30:29.716Z,16.98
2024-03-13T19:32:57.720Z,17.01
2024-03-13T19:35:26.297Z,17.16
2024-03-13T19:37:53.959Z,16.84
2024-03-13T19:40:21.947Z,16.80
2024-03-13T19:42:49.806Z,17.07
2024-03-13T19:45:17.662Z,16.58
2024-03-13T19:47:46.693Z,16.62
2024-03-13T19:50:14.730Z,16.54
2024-03-13T19:52:44.528Z,16.79
2024-03-13T19:55:14.062Z,16.77
2024-03-13T19:57:42.377Z,17.20
2024-03-13T20:00:14.928Z,17.24
2024-03-13T20:02:44.489Z,16.87
2024-03-13T20:05:13.807Z,17.04
2024-03-13T20:07:43.386Z,16.93
2024-03-13T20:10:12.508Z,17.14
2024-03-13T20:12:40.999Z,17.03
2024-03-13T20:15:09.453Z,17.08
2024-03-13T20:17:37.965Z,17.24
2024-03-13T20:20:06.976Z,17.21
2024-03-13T20:22:36.593Z,17.55
2024-03-13T20:25:04.727Z,17.49
2024-03-13T20:27:32.443Z,17.24
2024-03-13T20:30:00.265Z,17.23
2024-03-13T20:32:28.327Z,17.25
2024-03-13T20:34:56.077Z,17.26
2024-03-13T20:37:26.486Z,17.68
2024-03-13T20:39:54.224Z,17.26
2024-03-13T20:42:21.992Z,17.13
2024-03-13T20:44:49.756Z,17.16
2024-03-13T20:47:17.468Z,17.18
2024-03-13T20:49:45.497Z,16.77
2024-03-13T20:52:13.899Z,17.15
2024-03-13T20:54:42.019Z,17.61
2024-03-13T20:57:11.102Z,17.17
2024-03-13T20:59:38.760Z,17.28
2024-03-13T21:02:08.583Z,17.26
2024-03-13T21:04:36.491Z,17.24
2024-03-13T21:07:04.189Z,17.42
2024-03-13T21:09:31.962Z,16.87
2024-03-13T21:11:59.800Z,16.62
2024-03-13T21:14:27.806Z,16.71
2024-03-13T21:16:55.471Z,17.05
2024-03-13T21:19:23.223Z,16.91
2024-03-13T21:21:50.993Z,16.99
2024-03-13T21:24:19.342Z,16.99
2024-03-13T21:26:48.338Z,17.12
2024-03-13T21:29:16.371Z,17.62
2024-03-13T21:31:43.810Z,17.55
2024-03-13T21:34:17.282Z,16.98
2024-03-13T21:36:51.895Z,17.44
2024-03-13T21:39:22.389Z,16.96
2024-03-13T21:41:50.526Z,16.92
2024-03-13T21:44:18.282Z,16.83
2024-03-13T21:46:45.923Z,16.84
2024-03-13T21:49:14.326Z,16.95
2024-03-13T21:51:43.074Z,16.92
2024-03-13T21:54:11.769Z,16.84
2024-03-13T21:56:41.399Z,16.78
2024-03-13T21:59:09.206Z,16.94
2024-03-13T22:01:36.907Z,17.20
2024-03-13T22:04:04.744Z,17.07
2024-03-13T22:06:32.485Z,17.39
2024-03-13T22:09:00.260Z,17.47
2024-03-13T22:11:28.078Z,17.42
2024-03-13T22:13:55.771Z,17.30
2024-03-13T22:16:24.097Z,17.11
2024-03-13T22:18:52.334Z,16.87
2024-03-13T22:21:20.070Z,17.15
2024-03-13T22:23:47.743Z,17.03
2024-03-13T22:26:18.959Z,16.72
2024-03-13T22:28:46.627Z,16.72
2024-03-13T22:31:14.326Z,16.86
2024-03-13T22:33:42.105Z,16.62
2024-03-13T22:36:13.590Z,17.13
2024-03-13T22:38:41.285Z,17.25
2024-03-13T22:41:09.000Z,17.19
2024-03-13T22:43:36.727Z,17.24
2024-03-13T22:46:05.103Z,16.89
2024-03-13T22:48:33.283Z,16.89
2024-03-13T22:51:01.221Z,16.76
2024-03-13T22:53:29.865Z,16.79
2024-03-13T22:55:58.381Z,16.61
2024-03-13T22:58:26.053Z,16.95
2024-03-13T23:00:59.038Z,16.83
2024-03-13T23:03:27.776Z,16.72
2024-03-13T23:05:55.693Z,17.07
2024-03-13T23:08:23.456Z,17.30
2024-03-13T23:10:51.371Z,17.23
2024-03-13T23:13:21.289Z,17.50
2024-03-13T23:15:50.865Z,17.00
2024-03-13T23:18:18.938Z,16.83
2024-03-13T23:20:46.625Z,16.93
2024-03-13T23:23:14.339Z,17.25
2024-03-13T23:25:42.368Z,17.13
2024-03-13T23:28:10.205Z,17.18
2024-03-13T23:30:37.907Z,17.23
2024-03-13T23:33:05.968Z,16.82
2024-03-13T23:35:34.330Z,16.67
2024-03-13T23:38:02.701Z,16.76
2024-03-13T23:40:31.203Z,17.04
2024-03-13T23:42:58.883Z,17.00
2024-03-13T23:45:27.829Z,16.68
2024-03-13T23:47:56.009Z,17.09
2024-03-13T23:50:25.810Z,16.88
2024-03-13T23:52:53.502Z,16.94
2024-03-13T23:55:21.222Z,16.94
2024-03-13T23:57:48.881Z,16.88
